메인 페이지
METAR-TAF:

METAR-TAF

공항 :

살랄라, 오만

위도: 17-02N, 경도: 054-05E, 고도: 20m

현재 날씨관측

예보는 42분 전, 22:50시(UTC)에 발표되었습니다.
3kt
온도 28°C
습도 94%
기압 1007 hPa
시정: 6000m
고도 1000ft 상공 구름 조금
고도 2500ft 상공 구름 보통
고도 25000ft 상공 구름 많음

METAR: OOSA 012250Z 09003KT 6000 FEW010 SCT025 BKN250 28/27 Q1007 NOSIG

시각: 03:32 (23:32 UTC)

예보

예보는 6 시간 32분 전, 17:00시(UTC)에 발표되었습니다.
예보 대상 시간: 01일 18시부터 03일 00시까지 (UTC)
여러 방향의 바람 3kt
시정 10km 이상
고도 1000ft 상공 구름 조금
고도 2500ft 상공 구름 보통
고도 25000ft 상공 구름 많음
전환 중
01일 21시부터 01일 23시까지 (UTC)
고도 1500ft 상공 구름 조금
고도 2500ft 상공 구름 많음
전환 중
02일 06시부터 02일 08시까지 (UTC)
남남동8kt
전환 중
02일 15시부터 02일 17시까지 (UTC)
여러 방향의 바람 3kt
고도 2500ft 상공 구름 많음

TAF: OOSA 011700Z 0118/0300 VRB03KT 9999 FEW010 SCT025 BKN250 BECMG 0121/0123 FEW015 BKN025 BECMG 0206/0208 16008KT BECMG 0215/0217 VRB03KT BKN025

4,000개 이상의 공항 관측 자료 및 예보 (METAR 및 TAF 보고).

지도상에서 검색 가능한 기상관측소가 노란 점과 빨간 점으로 표시되어 있습니다.

기상관측소 명을 보려면 표시 위로 마우스를 이동하세요.

날씨 관측과 예보를 보려면 클릭하세요.

지도 변경 : 확대하려면 엑스 표시가 있는 녹색 버튼, 축소하려면 빼기 표시가 있는 녹색 버튼, 다음 페이지의 지도를 보려면 녹색 화살표를 클릭하세요.


METAR-TAF: